Time,TemperatureF,DewpointF,PressureIn,WindDirection,WindDirectionDegrees,WindSpeedMPH,WindSpeedGustMPH,Humidity,HourlyPrecipIn,Conditions,Clouds,dailyrainin,SolarRadiationWatts/m^2,SoftwareType,DateUTC
2013-06-14 00:12:00,78.3,40.0,29.57,NE,44,0.0,-999.0,25,-99.99,,,0.00,0,weatherlink.com 1.10,2013-06-14 06:12:00,
2013-06-14 00:27:00,77.7,40.0,29.57,NNE,30,1.0,-999.0,26,-99.99,,,0.00,0,weatherlink.com 1.10,2013-06-14 06:27:00,
2013-06-14 00:42:00,76.8,39.0,29.56,NNW,345,4.0,-999.0,26,-99.99,,,0.00,0,weatherlink.com 1.10,2013-06-14 06:42:00,
2013-06-14 00:57:00,76.1,42.0,29.56,NE,43,2.0,-999.0,29,-99.99,,,0.00,0,weatherlink.com 1.10,2013-06-14 06:57:00,
2013-06-14 01:12:00,75.7,43.0,29.56,NE,45,2.0,-999.0,31,-99.99,,,0.00,0,weatherlink.com 1.10,2013-06-14 07:12:00,
2013-06-14 01:27:00,75.0,45.0,29.55,NE,45,1.0,-999.0,34,-99.99,,,0.00,0,weatherlink.com 1.10,2013-06-14 07:27:00,
2013-06-14 01:43:00,74.8,45.0,29.54,ENE,67,5.0,-999.0,35,-99.99,,,0.00,0,weatherlink.com 1.10,2013-06-14 07:43:00,
2013-06-14 01:58:00,75.0,45.0,29.53,East,82,2.0,-999.0,34,-99.99,,,0.00,0,weatherlink.com 1.10,2013-06-14 07:58:00,
2013-06-14 02:13:00,74.9,45.0,29.52,East,96,0.0,-999.0,35,-99.99,,,0.00,0,weatherlink.com 1.10,2013-06-14 08:13:00,
2013-06-14 02:28:00,74.6,47.0,29.51,ESE,123,2.0,-999.0,37,-99.99,,,0.00,0,weatherlink.com 1.10,2013-06-14 08:28:00,
2013-06-14 02:43:00,74.1,47.0,29.51,SE,136,0.0,-999.0,38,-99.99,,,0.00,0,weatherlink.com 1.10,2013-06-14 08:43:00,
2013-06-14 02:58:00,73.8,47.0,29.51,NE,49,1.0,-999.0,39,-99.99,,,0.00,0,weatherlink.com 1.10,2013-06-14 08:58:00,
2013-06-14 03:13:00,73.7,48.0,29.50,NE,40,0.0,-999.0,40,-99.99,,,0.00,0,weatherlink.com 1.10,2013-06-14 09:13:00,
2013-06-14 03:28:00,73.4,48.0,29.50,NE,36,0.0,-999.0,40,-99.99,,,0.00,0,weatherlink.com 1.10,2013-06-14 09:28:00,
2013-06-14 03:43:00,72.7,48.0,29.50,North,5,2.0,-999.0,42,-99.99,,,0.00,0,weatherlink.com 1.10,2013-06-14 09:43:00,
2013-06-14 03:58:00,72.5,47.0,29.51,NW,323,0.0,-999.0,41,-99.99,,,0.00,0,weatherlink.com 1.10,2013-06-14 09:58:00,
2013-06-14 04:13:00,71.9,47.0,29.51,NNW,336,2.0,-999.0,42,-99.99,,,0.00,0,weatherlink.com 1.10,2013-06-14 10:13:00,
2013-06-14 04:28:00,71.6,48.0,29.52,North,355,5.0,-999.0,43,-99.99,,,0.00,0,weatherlink.com 1.10,2013-06-14 10:28:00,
2013-06-14 04:43:00,71.2,47.0,29.53,NW,316,0.0,-999.0,42,-99.99,,,0.00,0,weatherlink.com 1.10,2013-06-14 10:43:00,
2013-06-14 04:58:00,70.4,46.0,29.53,NNW,338,5.0,-999.0,42,-99.99,,,0.00,0,weatherlink.com 1.10,2013-06-14 10:58:00,
2013-06-14 05:13:00,69.9,46.0,29.53,NNW,333,0.0,-999.0,43,-99.99,,,0.00,0,weatherlink.com 1.10,2013-06-14 11:13:00,
2013-06-14 05:28:00,69.5,47.0,29.54,NNW,331,0.0,-999.0,44,-99.99,,,0.00,0,weatherlink.com 1.10,2013-06-14 11:28:00,
2013-06-14 05:43:00,68.9,46.0,29.55,NNW,331,0.0,-999.0,44,-99.99,,,0.00,0,weatherlink.com 1.10,2013-06-14 11:43:00,
2013-06-14 05:58:00,68.1,46.0,29.55,NNW,331,0.0,-999.0,45,-99.99,,,0.00,0,weatherlink.com 1.10,2013-06-14 11:58:00,
2013-06-14 06:13:00,67.6,46.0,29.55,NNW,331,0.0,-999.0,46,-99.99,,,0.00,7,weatherlink.com 1.10,2013-06-14 12:13:00,
2013-06-14 06:28:00,67.1,47.0,29.56,NNW,331,0.0,-999.0,48,-99.99,,,0.00,16,weatherlink.com 1.10,2013-06-14 12:28:00,
2013-06-14 06:43:00,66.8,47.0,29.56,NNW,331,0.0,-999.0,49,-99.99,,,0.00,25,weatherlink.com 1.10,2013-06-14 12:43:00,
2013-06-14 06:58:00,67.5,48.0,29.56,NNW,331,0.0,-999.0,50,-99.99,,,0.00,39,weatherlink.com 1.10,2013-06-14 12:58:00,
2013-06-14 07:13:00,68.7,49.0,29.56,NNW,332,0.0,-999.0,49,-99.99,,,0.00,51,weatherlink.com 1.10,2013-06-14 13:13:00,
2013-06-14 07:28:00,70.2,49.0,29.56,NNW,333,0.0,-999.0,48,-99.99,,,0.00,62,weatherlink.com 1.10,2013-06-14 13:28:00,
2013-06-14 07:43:00,71.7,50.0,29.56,NNW,333,0.0,-999.0,46,-99.99,,,0.00,74,weatherlink.com 1.10,2013-06-14 13:43:00,
2013-06-14 07:58:00,73.5,51.0,29.56,NNW,333,0.0,-999.0,45,-99.99,,,0.00,295,weatherlink.com 1.10,2013-06-14 13:58:00,
2013-06-14 08:14:00,75.2,51.0,29.56,NW,324,0.0,-999.0,43,-99.99,,,0.00,348,weatherlink.com 1.10,2013-06-14 14:14:00,
2013-06-14 08:29:00,76.8,52.0,29.56,SE,142,2.0,-999.0,42,-99.99,,,0.00,397,weatherlink.com 1.10,2013-06-14 14:29:00,
2013-06-14 08:44:00,78.8,52.0,29.56,SE,133,0.0,-999.0,40,-99.99,,,0.00,452,weatherlink.com 1.10,2013-06-14 14:44:00,
2013-06-14 08:59:00,79.3,52.0,29.56,South,169,6.0,-999.0,39,-99.99,,,0.00,501,weatherlink.com 1.10,2013-06-14 14:59:00,
2013-06-14 09:14:00,79.1,53.0,29.56,SSE,166,1.0,-999.0,41,-99.99,,,0.00,492,weatherlink.com 1.10,2013-06-14 15:14:00,
2013-06-14 09:29:00,79.7,53.0,29.56,SSE,156,2.0,-999.0,40,-99.99,,,0.00,578,weatherlink.com 1.10,2013-06-14 15:29:00,
2013-06-14 09:44:00,80.0,54.0,29.55,SSE,159,2.0,-999.0,40,-99.99,,,0.00,621,weatherlink.com 1.10,2013-06-14 15:44:00,
2013-06-14 09:59:00,81.6,54.0,29.55,SSE,166,4.0,-999.0,38,-99.99,,,0.00,661,weatherlink.com 1.10,2013-06-14 15:59:00,
2013-06-14 10:14:00,82.5,54.0,29.55,SE,125,7.0,-999.0,37,-99.99,,,0.00,698,weatherlink.com 1.10,2013-06-14 16:14:00,
2013-06-14 10:29:00,83.0,54.0,29.54,ESE,116,4.0,-999.0,37,-99.99,,,0.00,733,weatherlink.com 1.10,2013-06-14 16:29:00,
2013-06-14 10:44:00,84.4,54.0,29.54,SSE,152,0.0,-999.0,35,-99.99,,,0.00,768,weatherlink.com 1.10,2013-06-14 16:44:00,
2013-06-14 10:59:00,84.9,54.0,29.54,South,173,1.0,-999.0,34,-99.99,,,0.00,802,weatherlink.com 1.10,2013-06-14 16:59:00,
2013-06-14 11:15:00,86.0,54.0,29.53,SSW,205,1.0,-999.0,33,-99.99,,,0.00,831,weatherlink.com 1.10,2013-06-14 17:15:00,
2013-06-14 11:30:00,86.5,54.0,29.53,South,182,0.0,-999.0,33,-99.99,,,0.00,856,weatherlink.com 1.10,2013-06-14 17:30:00,
2013-06-14 11:45:00,87.4,53.0,29.52,SW,230,4.0,-999.0,31,-99.99,,,0.00,879,weatherlink.com 1.10,2013-06-14 17:45:00,
2013-06-14 12:00:00,89.2,54.0,29.51,South,175,7.0,-999.0,30,-99.99,,,0.00,896,weatherlink.com 1.10,2013-06-14 18:00:00,
2013-06-14 12:15:00,88.6,53.0,29.50,SSE,159,0.0,-999.0,30,-99.99,,,0.00,921,weatherlink.com 1.10,2013-06-14 18:15:00,
2013-06-14 12:30:00,89.7,52.0,29.49,WSW,254,4.0,-999.0,27,-99.99,,,0.00,921,weatherlink.com 1.10,2013-06-14 18:30:00,
2013-06-14 12:45:00,91.5,50.0,29.49,West,279,1.0,-999.0,24,-99.99,,,0.00,940,weatherlink.com 1.10,2013-06-14 18:45:00,
2013-06-14 13:00:00,91.2,50.0,29.48,SW,234,0.0,-999.0,24,-99.99,,,0.00,947,weatherlink.com 1.10,2013-06-14 19:00:00,
2013-06-14 13:15:00,91.8,49.0,29.47,WNW,284,2.0,-999.0,23,-99.99,,,0.00,946,weatherlink.com 1.10,2013-06-14 19:15:00,
2013-06-14 13:30:00,92.5,47.0,29.47,South,170,4.0,-999.0,21,-99.99,,,0.00,960,weatherlink.com 1.10,2013-06-14 19:30:00,
2013-06-14 13:45:00,92.7,47.0,29.46,NW,319,1.0,-999.0,21,-99.99,,,0.00,977,weatherlink.com 1.10,2013-06-14 19:45:00,
2013-06-14 14:00:00,93.4,47.0,29.46,SSW,194,5.0,-999.0,20,-99.99,,,0.00,153,weatherlink.com 1.10,2013-06-14 20:00:00,
2013-06-14 14:15:00,92.4,47.0,29.45,South,188,4.0,-999.0,21,-99.99,,,0.00,814,weatherlink.com 1.10,2013-06-14 20:15:00,
2013-06-14 14:30:00,92.2,46.0,29.44,WNW,287,5.0,-999.0,20,-99.99,,,0.00,90,weatherlink.com 1.10,2013-06-14 20:30:00,
2013-06-14 14:45:00,90.4,45.0,29.44,SW,228,3.0,-999.0,21,-99.99,,,0.00,135,weatherlink.com 1.10,2013-06-14 20:45:00,
2013-06-14 15:00:00,90.6,33.0,29.45,NW,309,3.0,-999.0,13,-99.99,,,0.00,142,weatherlink.com 1.10,2013-06-14 21:00:00,
2013-06-14 15:15:00,91.6,36.0,29.44,North,349,6.0,-999.0,14,-99.99,,,0.00,366,weatherlink.com 1.10,2013-06-14 21:15:00,
2013-06-14 15:30:00,92.1,43.0,29.45,SE,140,0.0,-999.0,18,-99.99,,,0.00,482,weatherlink.com 1.10,2013-06-14 21:30:00,
2013-06-14 15:45:00,85.2,42.0,29.45,East,86,14.0,-999.0,22,-99.99,,,0.00,162,weatherlink.com 1.10,2013-06-14 21:45:00,
2013-06-14 16:00:00,84.1,45.0,29.45,ENE,59,8.0,-999.0,25,-99.99,,,0.00,243,weatherlink.com 1.10,2013-06-14 22:00:00,
2013-06-14 16:15:00,82.4,45.0,29.45,East,97,14.0,-999.0,27,-99.99,,,0.00,209,weatherlink.com 1.10,2013-06-14 22:15:00,
2013-06-14 16:30:00,80.7,46.0,29.46,East,101,16.0,-999.0,29,-99.99,,,0.00,193,weatherlink.com 1.10,2013-06-14 22:30:00,
2013-06-14 16:45:00,80.3,46.0,29.45,East,92,11.0,-999.0,30,-99.99,,,0.00,156,weatherlink.com 1.10,2013-06-14 22:45:00,
2013-06-14 17:00:00,81.1,44.0,29.43,ENE,78,13.0,-999.0,27,-99.99,,,0.00,95,weatherlink.com 1.10,2013-06-14 23:00:00,
2013-06-14 17:15:00,82.1,44.0,29.44,SE,143,13.0,-999.0,26,-99.99,,,0.00,58,weatherlink.com 1.10,2013-06-14 23:15:00,
2013-06-14 17:30:00,82.5,44.0,29.44,ESE,110,9.0,-999.0,26,-99.99,,,0.00,51,weatherlink.com 1.10,2013-06-14 23:30:00,
2013-06-14 17:45:00,82.6,44.0,29.43,SE,145,11.0,-999.0,26,-99.99,,,0.00,56,weatherlink.com 1.10,2013-06-14 23:45:00,
2013-06-14 18:00:00,82.1,44.0,29.42,East,96,7.0,-999.0,26,-99.99,,,0.00,81,weatherlink.com 1.10,2013-06-15 00:00:00,
2013-06-14 18:15:00,82.9,43.0,29.43,ESE,103,13.0,-999.0,24,-99.99,,,0.00,120,weatherlink.com 1.10,2013-06-15 00:15:00,
2013-06-14 18:30:00,82.9,43.0,29.42,ENE,61,5.0,-999.0,24,-99.99,,,0.00,77,weatherlink.com 1.10,2013-06-15 00:30:00,
2013-06-14 18:45:00,82.7,42.0,29.42,East,86,1.0,-999.0,24,-99.99,,,0.00,53,weatherlink.com 1.10,2013-06-15 00:45:00,
2013-06-14 19:00:00,82.9,43.0,29.43,ENE,59,0.0,-999.0,24,-99.99,,,0.00,54,weatherlink.com 1.10,2013-06-15 01:00:00,
2013-06-14 19:15:00,82.8,42.0,29.43,ENE,59,0.0,-999.0,24,-99.99,,,0.00,32,weatherlink.com 1.10,2013-06-15 01:15:00,
2013-06-14 19:32:00,82.7,44.0,29.45,WSW,254,1.0,-999.0,26,-99.99,,,0.00,21,weatherlink.com 1.10,2013-06-15 01:32:00,
2013-06-14 19:46:00,81.6,44.0,29.46,WSW,240,2.0,-999.0,27,-99.99,,,0.00,23,weatherlink.com 1.10,2013-06-15 01:46:00,
2013-06-14 20:01:00,81.1,46.0,29.46,NW,304,1.0,-999.0,29,-99.99,,,0.00,21,weatherlink.com 1.10,2013-06-15 02:01:00,
2013-06-14 20:16:00,80.7,47.0,29.46,NW,323,0.0,-999.0,30,-99.99,,,0.00,5,weatherlink.com 1.10,2013-06-15 02:16:00,
2013-06-14 20:31:00,80.0,46.0,29.49,NW,321,3.0,-999.0,30,-99.99,,,0.00,0,weatherlink.com 1.10,2013-06-15 02:31:00,
2013-06-14 20:46:00,78.4,48.0,29.50,WNW,284,0.0,-999.0,34,-99.99,,,0.00,0,weatherlink.com 1.10,2013-06-15 02:46:00,
2013-06-14 21:01:00,77.7,48.0,29.50,North,351,4.0,-999.0,35,-99.99,,,0.00,0,weatherlink.com 1.10,2013-06-15 03:01:00,
2013-06-14 21:16:00,77.3,48.0,29.50,NNW,344,0.0,-999.0,35,-99.99,,,0.00,0,weatherlink.com 1.10,2013-06-15 03:16:00,
2013-06-14 21:31:00,77.0,47.0,29.51,NE,34,0.0,-999.0,35,-99.99,,,0.00,0,weatherlink.com 1.10,2013-06-15 03:31:00,
2013-06-14 21:46:00,76.8,47.0,29.52,NNE,30,0.0,-999.0,35,-99.99,,,0.00,0,weatherlink.com 1.10,2013-06-15 03:46:00,
2013-06-14 22:02:00,76.2,47.0,29.53,NNE,27,0.0,-999.0,35,-99.99,,,0.00,0,weatherlink.com 1.10,2013-06-15 04:02:00,
2013-06-14 22:17:00,75.2,46.0,29.54,North,5,1.0,-999.0,36,-99.99,,,0.00,0,weatherlink.com 1.10,2013-06-15 04:17:00,
2013-06-14 22:32:00,74.1,46.0,29.56,NNW,347,0.0,-999.0,37,-99.99,,,0.00,0,weatherlink.com 1.10,2013-06-15 04:32:00,
2013-06-14 22:46:00,73.3,47.0,29.56,NNW,337,0.0,-999.0,39,-99.99,,,0.00,0,weatherlink.com 1.10,2013-06-15 04:46:00,
2013-06-14 23:01:00,73.1,47.0,29.56,NE,36,0.0,-999.0,40,-99.99,,,0.00,0,weatherlink.com 1.10,2013-06-15 05:01:00,
2013-06-14 23:16:00,72.5,49.0,29.56,NE,40,0.0,-999.0,44,-99.99,,,0.00,0,weatherlink.com 1.10,2013-06-15 05:16:00,
2013-06-14 23:31:00,71.8,50.0,29.56,NE,55,1.0,-999.0,46,-99.99,,,0.00,0,weatherlink.com 1.10,2013-06-15 05:31:00,
2013-06-14 23:46:00,71.1,50.0,29.55,ENE,59,0.0,-999.0,48,-99.99,,,0.00,0,weatherlink.com 1.10,2013-06-15 05:46:00,